Hlavní strana
METAR-TAF:

METAR-TAF

Letiště :

Lethbridge, Alberta, Kanada

zeměpisná šířka: 49-38N, zeměpisná délka: 112-48W, výška: 929 m

Aktuální stav počasí

Zpráva byla vytvořena před 49 minutami, v 05:00 UTC
Jihozápadní vítr 10 kt
Teplota 1°C
Vlhkost vzduchu 75%
Tlak 1007 hPa
Viditelnost: 32.2 km
Jasno

METAR: CYQL 250500Z 23010KT 20SM SKC 01/M03 A2973 RMK LAST STFD OBS/NXT 251300Z SLP092

Čas: 22:49 (05:49 UTC)

Předpověď počasí

Zpráva byla vytvořena před 6 hodinami a 11 minutami, v 23:38 UTC
Předpověď platná od 25 v 00 UTC do 25 v 12 UTC
Jihozápadní vítr 12 kt
Viditelnost: 10 km
Skoro jasno ve výšce 5000 ft
Polojasno ve výšce 14000 ft
Oblačno až skoro zataženo ve výšce 24000 ft
Změna
od 25 v 03 UTC do 25 v 05 UTC
Západojihozápadní vítr 18 kt s nárazy do 32 kt

TAF: CYQL 242338Z 2500/2512 22012KT P6SM FEW050 SCT140 BKN240 BECMG 2503/2505 25018G32KT RMK NXT FCST BY 250600Z

Stav a předpovědi počasí z více než 4 000 letišť (zprávy METAR a TAF).

Červené a žluté tečky na mapě představují dostupné meteorologické stanice.

Když kurzor umístíte na tečku, zobrazí se název stanice.

Pak kliknutím zobrazíte stav a předpověď počasí.

Chcete-li změnit mapu, kliknutím na zelené tlačítko se znaménkem +mapu přiblížíte, kliknutím na zelené tlačítko se znaménkem – mapu oddálíte a kliknutím na zelené šipky přejdete na sousední mapy.


METAR-TAF: